sensor_id;sensor_type;location;lat;lon;timestamp;temperature;humidity
843;DHT22;407;48.884;9.126;2022-11-11T00:00:35;6.90;1.00
843;DHT22;407;48.884;9.126;2022-11-11T00:03:01;8.60;1.00
843;DHT22;407;48.884;9.126;2022-11-11T00:05:27;6.90;1.00
843;DHT22;407;48.884;9.126;2022-11-11T00:07:54;8.50;1.00
843;DHT22;407;48.884;9.126;2022-11-11T00:10:27;6.80;1.00
843;DHT22;407;48.884;9.126;2022-11-11T00:12:53;6.70;1.00
843;DHT22;407;48.884;9.126;2022-11-11T00:15:22;7.60;1.00
843;DHT22;407;48.884;9.126;2022-11-11T00:17:47;7.50;15.50
843;DHT22;407;48.884;9.126;2022-11-11T00:20:31;6.90;21.40
843;DHT22;407;48.884;9.126;2022-11-11T00:23:21;7.30;32.50
843;DHT22;407;48.884;9.126;2022-11-11T00:26:06;7.60;20.60
843;DHT22;407;48.884;9.126;2022-11-11T00:28:32;7.00;1.00
843;DHT22;407;48.884;9.126;2022-11-11T00:31:05;6.90;1.00
843;DHT22;407;48.884;9.126;2022-11-11T00:33:31;6.80;1.00
843;DHT22;407;48.884;9.126;2022-11-11T00:35:57;6.80;1.00
843;DHT22;407;48.884;9.126;2022-11-11T00:38:22;6.90;1.00
843;DHT22;407;48.884;9.126;2022-11-11T00:41:07;6.90;1.00
843;DHT22;407;48.884;9.126;2022-11-11T00:43:32;7.00;1.00
843;DHT22;407;48.884;9.126;2022-11-11T00:45:58;6.90;1.00
843;DHT22;407;48.884;9.126;2022-11-11T00:48:42;7.80;1.00
843;DHT22;407;48.884;9.126;2022-11-11T00:51:27;7.90;1.00
843;DHT22;407;48.884;9.126;2022-11-11T00:53:53;6.60;1.00
843;DHT22;407;48.884;9.126;2022-11-11T00:56:20;6.70;1.00
843;DHT22;407;48.884;9.126;2022-11-11T00:58:46;7.30;40.30
843;DHT22;407;48.884;9.126;2022-11-11T01:01:11;6.80;69.10
843;DHT22;407;48.884;9.126;2022-11-11T01:03:37;6.90;73.80
843;DHT22;407;48.884;9.126;2022-11-11T01:06:04;7.00;56.60
843;DHT22;407;48.884;9.126;2022-11-11T01:08:30;7.10;45.70
843;DHT22;407;48.884;9.126;2022-11-11T01:10:56;7.10;18.60
843;DHT22;407;48.884;9.126;2022-11-11T01:15:58;7.00;1.00
843;DHT22;407;48.884;9.126;2022-11-11T01:18:25;6.90;7.70
843;DHT22;407;48.884;9.126;2022-11-11T01:23:32;6.90;42.60
843;DHT22;407;48.884;9.126;2022-11-11T01:26:18;6.90;85.10
843;DHT22;407;48.884;9.126;2022-11-11T01:28:47;7.00;96.40
843;DHT22;407;48.884;9.126;2022-11-11T01:31:14;7.00;99.90
843;DHT22;407;48.884;9.126;2022-11-11T01:33:40;7.10;99.90
843;DHT22;407;48.884;9.126;2022-11-11T01:36:16;7.00;90.90
843;DHT22;407;48.884;9.126;2022-11-11T01:38:42;7.00;75.30
843;DHT22;407;48.884;9.126;2022-11-11T01:41:12;7.00;75.30
843;DHT22;407;48.884;9.126;2022-11-11T01:43:59;7.00;94.60
843;DHT22;407;48.884;9.126;2022-11-11T01:49:16;7.50;71.00
843;DHT22;407;48.884;9.126;2022-11-11T01:51:48;7.50;97.90
843;DHT22;407;48.884;9.126;2022-11-11T01:54:20;7.10;79.70
843;DHT22;407;48.884;9.126;2022-11-11T01:56:49;8.70;85.20
843;DHT22;407;48.884;9.126;2022-11-11T01:59:16;6.90;87.20
843;DHT22;407;48.884;9.126;2022-11-11T02:01:43;6.80;99.90
843;DHT22;407;48.884;9.126;2022-11-11T02:04:09;8.30;99.90
843;DHT22;407;48.884;9.126;2022-11-11T02:06:57;6.80;99.90
843;DHT22;407;48.884;9.126;2022-11-11T02:09:24;6.80;99.90
843;DHT22;407;48.884;9.126;2022-11-11T02:11:50;6.70;99.90
843;DHT22;407;48.884;9.126;2022-11-11T02:14:42;7.00;99.90
843;DHT22;407;48.884;9.126;2022-11-11T02:17:11;6.60;99.90
843;DHT22;407;48.884;9.126;2022-11-11T02:22:14;8.00;99.90
843;DHT22;407;48.884;9.126;2022-11-11T02:24:41;6.60;99.90
843;DHT22;407;48.884;9.126;2022-11-11T02:27:10;6.60;99.90
843;DHT22;407;48.884;9.126;2022-11-11T02:29:37;6.60;99.90
843;DHT22;407;48.884;9.126;2022-11-11T02:32:04;8.20;99.90
843;DHT22;407;48.884;9.126;2022-11-11T02:34:31;6.60;99.90
843;DHT22;407;48.884;9.126;2022-11-11T02:36:57;6.50;99.90
843;DHT22;407;48.884;9.126;2022-11-11T02:39:25;6.60;99.90
843;DHT22;407;48.884;9.126;2022-11-11T02:41:51;6.50;99.90
843;DHT22;407;48.884;9.126;2022-11-11T02:44:24;6.50;99.90
843;DHT22;407;48.884;9.126;2022-11-11T02:46:50;6.40;99.90
843;DHT22;407;48.884;9.126;2022-11-11T02:49:16;6.50;99.90
843;DHT22;407;48.884;9.126;2022-11-11T02:51:41;6.90;99.90
843;DHT22;407;48.884;9.126;2022-11-11T02:54:07;6.70;99.90
843;DHT22;407;48.884;9.126;2022-11-11T02:56:33;6.70;90.60
843;DHT22;407;48.884;9.126;2022-11-11T02:59:17;7.40;57.30
843;DHT22;407;48.884;9.126;2022-11-11T03:01:43;6.60;46.60
843;DHT22;407;48.884;9.126;2022-11-11T03:04:10;6.60;51.40
843;DHT22;407;48.884;9.126;2022-11-11T03:06:35;6.50;58.60
843;DHT22;407;48.884;9.126;2022-11-11T03:09:01;6.60;78.70
843;DHT22;407;48.884;9.126;2022-11-11T03:11:27;6.60;44.70
843;DHT22;407;48.884;9.126;2022-11-11T03:13:56;8.00;45.80
843;DHT22;407;48.884;9.126;2022-11-11T03:16:22;6.60;29.40
843;DHT22;407;48.884;9.126;2022-11-11T03:19:07;6.40;57.10
843;DHT22;407;48.884;9.126;2022-11-11T03:21:32;6.30;99.90
843;DHT22;407;48.884;9.126;2022-11-11T03:23:58;6.20;99.90
843;DHT22;407;48.884;9.126;2022-11-11T03:26:23;8.00;99.90
843;DHT22;407;48.884;9.126;2022-11-11T03:28:49;6.10;99.90
843;DHT22;407;48.884;9.126;2022-11-11T03:31:15;6.10;99.90
843;DHT22;407;48.884;9.126;2022-11-11T03:33:40;6.10;99.90
843;DHT22;407;48.884;9.126;2022-11-11T03:36:06;6.90;99.90
843;DHT22;407;48.884;9.126;2022-11-11T03:38:32;6.10;99.90
843;DHT22;407;48.884;9.126;2022-11-11T03:40:58;6.60;99.90
843;DHT22;407;48.884;9.126;2022-11-11T03:43:25;6.10;99.90
843;DHT22;407;48.884;9.126;2022-11-11T03:45:53;6.10;99.90
843;DHT22;407;48.884;9.126;2022-11-11T03:48:19;7.90;99.90
843;DHT22;407;48.884;9.126;2022-11-11T03:50:48;6.20;99.90
843;DHT22;407;48.884;9.126;2022-11-11T03:53:15;7.90;99.90
843;DHT22;407;48.884;9.126;2022-11-11T03:55:42;6.10;99.90
843;DHT22;407;48.884;9.126;2022-11-11T03:58:08;6.10;99.90
843;DHT22;407;48.884;9.126;2022-11-11T04:00:34;8.00;99.90
843;DHT22;407;48.884;9.126;2022-11-11T04:03:22;6.90;99.90
843;DHT22;407;48.884;9.126;2022-11-11T04:06:08;6.00;99.90
843;DHT22;407;48.884;9.126;2022-11-11T04:08:53;6.40;99.90
843;DHT22;407;48.884;9.126;2022-11-11T04:11:39;6.20;99.90
843;DHT22;407;48.884;9.126;2022-11-11T04:14:11;6.30;99.90
843;DHT22;407;48.884;9.126;2022-11-11T04:16:56;6.20;99.90
843;DHT22;407;48.884;9.126;2022-11-11T04:19:22;6.20;99.90
843;DHT22;407;48.884;9.126;2022-11-11T04:22:07;6.10;99.90
843;DHT22;407;48.884;9.126;2022-11-11T04:24:32;7.30;99.90
843;DHT22;407;48.884;9.126;2022-11-11T04:27:30;6.30;99.90
843;DHT22;407;48.884;9.126;2022-11-11T04:29:56;7.50;99.90
843;DHT22;407;48.884;9.126;2022-11-11T04:32:21;5.90;99.90
843;DHT22;407;48.884;9.126;2022-11-11T04:35:09;7.70;99.90
843;DHT22;407;48.884;9.126;2022-11-11T04:37:36;6.00;99.90
843;DHT22;407;48.884;9.126;2022-11-11T04:40:08;6.00;99.90
843;DHT22;407;48.884;9.126;2022-11-11T04:42:53;6.00;99.90
843;DHT22;407;48.884;9.126;2022-11-11T04:45:18;6.10;99.90
843;DHT22;407;48.884;9.126;2022-11-11T04:48:06;6.20;99.90
843;DHT22;407;48.884;9.126;2022-11-11T04:50:42;6.30;85.10
843;DHT22;407;48.884;9.126;2022-11-11T04:53:12;6.50;65.80
843;DHT22;407;48.884;9.126;2022-11-11T04:55:40;6.80;26.10
843;DHT22;407;48.884;9.126;2022-11-11T04:58:27;7.10;25.70
843;DHT22;407;48.884;9.126;2022-11-11T05:00:52;6.20;25.40
843;DHT22;407;48.884;9.126;2022-11-11T05:03:18;7.90;26.40
843;DHT22;407;48.884;9.126;2022-11-11T05:08:41;6.00;13.40
843;DHT22;407;48.884;9.126;2022-11-11T05:11:33;6.00;3.70
843;DHT22;407;48.884;9.126;2022-11-11T05:14:05;7.30;1.00
843;DHT22;407;48.884;9.126;2022-11-11T05:16:54;5.90;1.00
843;DHT22;407;48.884;9.126;2022-11-11T05:19:39;7.60;1.00
843;DHT22;407;48.884;9.126;2022-11-11T05:22:31;5.90;1.00
843;DHT22;407;48.884;9.126;2022-11-11T05:24:57;6.90;1.00
843;DHT22;407;48.884;9.126;2022-11-11T05:27:41;5.80;1.00
843;DHT22;407;48.884;9.126;2022-11-11T05:30:09;6.30;1.00
843;DHT22;407;48.884;9.126;2022-11-11T05:32:36;5.70;29.80
843;DHT22;407;48.884;9.126;2022-11-11T05:35:02;5.70;47.70
843;DHT22;407;48.884;9.126;2022-11-11T05:37:27;5.80;29.00
843;DHT22;407;48.884;9.126;2022-11-11T05:39:53;5.80;28.00
843;DHT22;407;48.884;9.126;2022-11-11T05:42:19;5.70;33.50
843;DHT22;407;48.884;9.126;2022-11-11T05:44:45;5.80;68.40
843;DHT22;407;48.884;9.126;2022-11-11T05:47:11;6.60;69.10
843;DHT22;407;48.884;9.126;2022-11-11T05:49:36;6.90;91.50
843;DHT22;407;48.884;9.126;2022-11-11T05:52:02;5.60;99.90
843;DHT22;407;48.884;9.126;2022-11-11T05:54:28;5.60;99.90
843;DHT22;407;48.884;9.126;2022-11-11T05:56:54;5.60;99.90
843;DHT22;407;48.884;9.126;2022-11-11T05:59:19;7.00;99.90
843;DHT22;407;48.884;9.126;2022-11-11T06:01:45;5.70;99.90
843;DHT22;407;48.884;9.126;2022-11-11T06:04:11;5.70;88.90
843;DHT22;407;48.884;9.126;2022-11-11T06:06:37;5.80;99.50
843;DHT22;407;48.884;9.126;2022-11-11T06:09:04;6.80;71.90
843;DHT22;407;48.884;9.126;2022-11-11T06:11:30;5.70;47.40
843;DHT22;407;48.884;9.126;2022-11-11T06:13:56;5.70;39.20
843;DHT22;407;48.884;9.126;2022-11-11T06:16:22;5.80;81.20
843;DHT22;407;48.884;9.126;2022-11-11T06:18:48;5.60;66.50
843;DHT22;407;48.884;9.126;2022-11-11T06:21:14;5.70;85.20
843;DHT22;407;48.884;9.126;2022-11-11T06:23:40;5.80;91.20
843;DHT22;407;48.884;9.126;2022-11-11T06:26:05;6.60;61.70
843;DHT22;407;48.884;9.126;2022-11-11T06:28:45;5.90;45.90
843;DHT22;407;48.884;9.126;2022-11-11T06:31:19;5.90;30.40
843;DHT22;407;48.884;9.126;2022-11-11T06:33:45;5.90;28.80
843;DHT22;407;48.884;9.126;2022-11-11T06:36:13;5.90;38.30
843;DHT22;407;48.884;9.126;2022-11-11T06:38:41;5.90;15.30
843;DHT22;407;48.884;9.126;2022-11-11T06:41:08;5.90;1.00
843;DHT22;407;48.884;9.126;2022-11-11T06:43:34;6.00;1.00
843;DHT22;407;48.884;9.126;2022-11-11T06:46:00;7.60;1.00
843;DHT22;407;48.884;9.126;2022-11-11T06:48:27;5.90;1.00
843;DHT22;407;48.884;9.126;2022-11-11T06:50:53;6.30;1.00
843;DHT22;407;48.884;9.126;2022-11-11T06:53:21;6.00;1.00
843;DHT22;407;48.884;9.126;2022-11-11T06:55:47;6.10;1.00
843;DHT22;407;48.884;9.126;2022-11-11T06:58:17;6.10;1.00
843;DHT22;407;48.884;9.126;2022-11-11T07:00:44;7.50;1.00
843;DHT22;407;48.884;9.126;2022-11-11T07:03:13;6.20;1.00
843;DHT22;407;48.884;9.126;2022-11-11T07:05:39;6.20;1.00
843;DHT22;407;48.884;9.126;2022-11-11T07:08:10;8.10;1.00
843;DHT22;407;48.884;9.126;2022-11-11T07:10:37;6.60;1.00
843;DHT22;407;48.884;9.126;2022-11-11T07:13:04;6.60;1.00
843;DHT22;407;48.884;9.126;2022-11-11T07:15:30;6.60;1.00
843;DHT22;407;48.884;9.126;2022-11-11T07:17:57;6.50;1.00
843;DHT22;407;48.884;9.126;2022-11-11T07:20:22;6.40;1.00
843;DHT22;407;48.884;9.126;2022-11-11T07:22:48;6.40;1.00
843;DHT22;407;48.884;9.126;2022-11-11T07:25:14;6.40;1.00
843;DHT22;407;48.884;9.126;2022-11-11T07:27:40;6.50;1.00
843;DHT22;407;48.884;9.126;2022-11-11T07:30:07;6.80;1.00
843;DHT22;407;48.884;9.126;2022-11-11T07:32:33;6.70;1.00
843;DHT22;407;48.884;9.126;2022-11-11T07:34:58;6.80;1.00
843;DHT22;407;48.884;9.126;2022-11-11T07:37:24;7.30;1.00
843;DHT22;407;48.884;9.126;2022-11-11T07:39:49;7.20;1.00
843;DHT22;407;48.884;9.126;2022-11-11T07:42:15;7.30;1.00
843;DHT22;407;48.884;9.126;2022-11-11T07:44:41;7.40;1.00
843;DHT22;407;48.884;9.126;2022-11-11T07:47:07;7.50;1.00
843;DHT22;407;48.884;9.126;2022-11-11T07:49:32;7.60;1.00
843;DHT22;407;48.884;9.126;2022-11-11T07:51:58;7.70;99.90
843;DHT22;407;48.884;9.126;2022-11-11T07:54:24;7.90;99.90
843;DHT22;407;48.884;9.126;2022-11-11T07:56:49;9.00;99.90
843;DHT22;407;48.884;9.126;2022-11-11T07:59:15;8.20;99.90
843;DHT22;407;48.884;9.126;2022-11-11T08:01:41;8.30;1.00
843;DHT22;407;48.884;9.126;2022-11-11T08:04:07;8.30;1.00
843;DHT22;407;48.884;9.126;2022-11-11T08:06:33;8.40;1.00
843;DHT22;407;48.884;9.126;2022-11-11T08:08:58;8.80;1.00
843;DHT22;407;48.884;9.126;2022-11-11T08:11:24;8.80;1.00
843;DHT22;407;48.884;9.126;2022-11-11T08:14:08;9.10;99.90
843;DHT22;407;48.884;9.126;2022-11-11T08:16:34;9.30;99.90
843;DHT22;407;48.884;9.126;2022-11-11T08:19:00;9.30;1.00
843;DHT22;407;48.884;9.126;2022-11-11T08:21:26;9.40;15.10
843;DHT22;407;48.884;9.126;2022-11-11T08:23:52;9.70;1.00
843;DHT22;407;48.884;9.126;2022-11-11T08:26:19;9.70;99.90
843;DHT22;407;48.884;9.126;2022-11-11T08:28:46;9.80;99.90
843;DHT22;407;48.884;9.126;2022-11-11T08:31:11;10.10;61.60
843;DHT22;407;48.884;9.126;2022-11-11T08:33:37;10.50;1.00
843;DHT22;407;48.884;9.126;2022-11-11T08:36:03;10.80;99.90
843;DHT22;407;48.884;9.126;2022-11-11T08:38:30;10.90;93.00
843;DHT22;407;48.884;9.126;2022-11-11T08:40:59;11.40;1.00
843;DHT22;407;48.884;9.126;2022-11-11T08:43:25;11.60;1.00
843;DHT22;407;48.884;9.126;2022-11-11T08:45:54;11.90;99.90
843;DHT22;407;48.884;9.126;2022-11-11T08:48:19;12.40;99.90
843;DHT22;407;48.884;9.126;2022-11-11T08:50:45;13.10;99.90
843;DHT22;407;48.884;9.126;2022-11-11T08:53:11;13.90;1.00
843;DHT22;407;48.884;9.126;2022-11-11T08:55:37;14.60;1.00
843;DHT22;407;48.884;9.126;2022-11-11T08:58:05;15.10;1.00
843;DHT22;407;48.884;9.126;2022-11-11T09:00:32;15.30;1.00
843;DHT22;407;48.884;9.126;2022-11-11T09:05:30;16.50;1.00
843;DHT22;407;48.884;9.126;2022-11-11T09:08:00;17.00;1.00
843;DHT22;407;48.884;9.126;2022-11-11T09:10:26;17.90;99.90
843;DHT22;407;48.884;9.126;2022-11-11T09:12:56;18.20;99.90
843;DHT22;407;48.884;9.126;2022-11-11T09:15:21;18.40;99.90
843;DHT22;407;48.884;9.126;2022-11-11T09:17:47;19.40;99.90
843;DHT22;407;48.884;9.126;2022-11-11T09:20:12;19.80;99.90
843;DHT22;407;48.884;9.126;2022-11-11T09:22:42;19.90;99.90
843;DHT22;407;48.884;9.126;2022-11-11T09:25:08;19.40;99.90
843;DHT22;407;48.884;9.126;2022-11-11T09:27:34;19.00;99.90
843;DHT22;407;48.884;9.126;2022-11-11T09:32:26;18.90;99.90
843;DHT22;407;48.884;9.126;2022-11-11T09:34:51;19.10;99.90
843;DHT22;407;48.884;9.126;2022-11-11T09:37:19;19.10;99.90
843;DHT22;407;48.884;9.126;2022-11-11T09:39:45;18.20;99.90
843;DHT22;407;48.884;9.126;2022-11-11T09:42:49;18.00;99.90
843;DHT22;407;48.884;9.126;2022-11-11T09:45:28;19.00;99.90
843;DHT22;407;48.884;9.126;2022-11-11T09:50:49;18.30;99.90
843;DHT22;407;48.884;9.126;2022-11-11T09:53:32;17.50;99.90
843;DHT22;407;48.884;9.126;2022-11-11T09:56:12;18.20;99.90
843;DHT22;407;48.884;9.126;2022-11-11T10:01:18;18.70;99.90
843;DHT22;407;48.884;9.126;2022-11-11T10:06:30;19.50;99.90
843;DHT22;407;48.884;9.126;2022-11-11T10:09:01;19.00;99.90
843;DHT22;407;48.884;9.126;2022-11-11T10:11:40;19.10;99.90
843;DHT22;407;48.884;9.126;2022-11-11T10:14:08;19.20;99.90
843;DHT22;407;48.884;9.126;2022-11-11T10:16:55;19.70;99.90
843;DHT22;407;48.884;9.126;2022-11-11T10:22:00;18.90;99.90
843;DHT22;407;48.884;9.126;2022-11-11T10:24:33;18.70;99.90
843;DHT22;407;48.884;9.126;2022-11-11T10:27:03;18.60;99.90
843;DHT22;407;48.884;9.126;2022-11-11T10:29:40;18.60;99.90
843;DHT22;407;48.884;9.126;2022-11-11T10:32:21;17.90;99.90
843;DHT22;407;48.884;9.126;2022-11-11T10:34:47;17.70;99.90
843;DHT22;407;48.884;9.126;2022-11-11T10:37:18;17.70;99.90
843;DHT22;407;48.884;9.126;2022-11-11T10:39:57;17.80;99.90
843;DHT22;407;48.884;9.126;2022-11-11T10:42:23;17.90;99.90
843;DHT22;407;48.884;9.126;2022-11-11T10:44:50;18.30;99.90
843;DHT22;407;48.884;9.126;2022-11-11T10:47:43;18.40;99.90
843;DHT22;407;48.884;9.126;2022-11-11T10:50:17;19.00;99.90
843;DHT22;407;48.884;9.126;2022-11-11T10:53:11;18.70;99.90
843;DHT22;407;48.884;9.126;2022-11-11T10:55:57;18.00;99.90
843;DHT22;407;48.884;9.126;2022-11-11T10:58:33;18.00;99.90
843;DHT22;407;48.884;9.126;2022-11-11T11:01:04;18.00;99.90
843;DHT22;407;48.884;9.126;2022-11-11T11:03:34;18.00;99.90
843;DHT22;407;48.884;9.126;2022-11-11T11:06:06;18.20;99.90
843;DHT22;407;48.884;9.126;2022-11-11T11:08:40;18.00;99.90
843;DHT22;407;48.884;9.126;2022-11-11T11:11:22;17.50;99.90
843;DHT22;407;48.884;9.126;2022-11-11T11:13:52;16.90;99.90
843;DHT22;407;48.884;9.126;2022-11-11T11:16:23;16.50;99.90
843;DHT22;407;48.884;9.126;2022-11-11T11:19:24;15.80;99.90
843;DHT22;407;48.884;9.126;2022-11-11T11:21:58;15.60;99.90
843;DHT22;407;48.884;9.126;2022-11-11T11:24:25;15.00;99.90
843;DHT22;407;48.884;9.126;2022-11-11T11:26:53;15.80;99.90
843;DHT22;407;48.884;9.126;2022-11-11T11:29:38;16.00;99.90
843;DHT22;407;48.884;9.126;2022-11-11T11:32:26;15.70;99.90
843;DHT22;407;48.884;9.126;2022-11-11T11:34:54;15.70;99.90
843;DHT22;407;48.884;9.126;2022-11-11T11:37:22;15.60;99.90
843;DHT22;407;48.884;9.126;2022-11-11T11:40:00;15.70;99.90
843;DHT22;407;48.884;9.126;2022-11-11T11:42:34;15.70;99.90
843;DHT22;407;48.884;9.126;2022-11-11T11:48:05;15.60;99.90
843;DHT22;407;48.884;9.126;2022-11-11T11:50:47;15.70;99.90
843;DHT22;407;48.884;9.126;2022-11-11T11:56:14;16.00;99.90
843;DHT22;407;48.884;9.126;2022-11-11T11:59:04;16.00;99.90
843;DHT22;407;48.884;9.126;2022-11-11T12:01:50;16.20;99.90
843;DHT22;407;48.884;9.126;2022-11-11T12:04:37;16.90;99.90
843;DHT22;407;48.884;9.126;2022-11-11T12:07:19;16.50;99.90
843;DHT22;407;48.884;9.126;2022-11-11T12:10:07;16.40;99.90
843;DHT22;407;48.884;9.126;2022-11-11T12:13:27;16.70;99.90
843;DHT22;407;48.884;9.126;2022-11-11T12:15:42;16.70;99.90
843;DHT22;407;48.884;9.126;2022-11-11T12:26:23;16.90;99.90
843;DHT22;407;48.884;9.126;2022-11-11T12:34:09;17.00;99.90
843;DHT22;407;48.884;9.126;2022-11-11T12:36:53;17.10;99.90
843;DHT22;407;48.884;9.126;2022-11-11T12:48:18;16.70;99.90
843;DHT22;407;48.884;9.126;2022-11-11T12:50:50;16.80;99.90
843;DHT22;407;48.884;9.126;2022-11-11T12:53:35;16.90;99.90
843;DHT22;407;48.884;9.126;2022-11-11T12:56:26;16.80;99.90
843;DHT22;407;48.884;9.126;2022-11-11T12:59:23;16.80;99.90
843;DHT22;407;48.884;9.126;2022-11-11T13:16:16;16.50;99.90
843;DHT22;407;48.884;9.126;2022-11-11T13:19:10;16.50;99.90
843;DHT22;407;48.884;9.126;2022-11-11T13:24:34;16.50;99.90
843;DHT22;407;48.884;9.126;2022-11-11T13:27:03;16.60;99.90
843;DHT22;407;48.884;9.126;2022-11-11T13:32:59;16.90;99.90
843;DHT22;407;48.884;9.126;2022-11-11T13:35:28;17.00;99.90
843;DHT22;407;48.884;9.126;2022-11-11T13:37:54;17.00;99.90
843;DHT22;407;48.884;9.126;2022-11-11T13:40:36;17.00;99.90
843;DHT22;407;48.884;9.126;2022-11-11T13:43:05;17.00;99.90
843;DHT22;407;48.884;9.126;2022-11-11T13:45:41;16.90;99.90
843;DHT22;407;48.884;9.126;2022-11-11T13:48:20;16.80;99.90
843;DHT22;407;48.884;9.126;2022-11-11T13:50:47;16.60;99.90
843;DHT22;407;48.884;9.126;2022-11-11T13:53:26;16.40;99.90
843;DHT22;407;48.884;9.126;2022-11-11T13:56:00;16.40;99.90
843;DHT22;407;48.884;9.126;2022-11-11T13:58:30;16.50;99.90
843;DHT22;407;48.884;9.126;2022-11-11T14:01:02;16.60;99.90
843;DHT22;407;48.884;9.126;2022-11-11T14:03:36;16.50;99.90
843;DHT22;407;48.884;9.126;2022-11-11T14:13:53;16.50;99.90
843;DHT22;407;48.884;9.126;2022-11-11T14:24:48;16.50;99.90
843;DHT22;407;48.884;9.126;2022-11-11T14:27:16;16.50;99.90
843;DHT22;407;48.884;9.126;2022-11-11T14:29:52;16.30;99.90
843;DHT22;407;48.884;9.126;2022-11-11T14:37:56;16.30;99.90
843;DHT22;407;48.884;9.126;2022-11-11T14:40:30;17.70;99.90
843;DHT22;407;48.884;9.126;2022-11-11T14:42:56;16.30;99.90
843;DHT22;407;48.884;9.126;2022-11-11T14:47:49;16.00;99.90
843;DHT22;407;48.884;9.126;2022-11-11T14:53:17;16.00;99.90
843;DHT22;407;48.884;9.126;2022-11-11T14:55:51;15.80;99.90
843;DHT22;407;48.884;9.126;2022-11-11T14:58:19;15.70;99.90
843;DHT22;407;48.884;9.126;2022-11-11T15:01:13;15.60;99.90
843;DHT22;407;48.884;9.126;2022-11-11T15:03:44;15.60;99.90
843;DHT22;407;48.884;9.126;2022-11-11T15:06:24;15.50;99.90
843;DHT22;407;48.884;9.126;2022-11-11T15:15:07;15.20;99.90
843;DHT22;407;48.884;9.126;2022-11-11T15:23:14;14.70;99.90
843;DHT22;407;48.884;9.126;2022-11-11T15:25:52;14.60;99.90
843;DHT22;407;48.884;9.126;2022-11-11T15:38:59;13.90;1.00
843;DHT22;407;48.884;9.126;2022-11-11T15:41:41;13.80;1.00
843;DHT22;407;48.884;9.126;2022-11-11T15:44:28;13.70;1.00
843;DHT22;407;48.884;9.126;2022-11-11T15:46:55;13.60;1.00
843;DHT22;407;48.884;9.126;2022-11-11T15:49:47;13.50;1.00
843;DHT22;407;48.884;9.126;2022-11-11T15:54:49;13.10;1.00
843;DHT22;407;48.884;9.126;2022-11-11T15:57:27;13.00;99.90
843;DHT22;407;48.884;9.126;2022-11-11T15:59:54;12.80;1.00
843;DHT22;407;48.884;9.126;2022-11-11T16:02:25;12.70;1.00
843;DHT22;407;48.884;9.126;2022-11-11T16:04:56;12.50;99.90
843;DHT22;407;48.884;9.126;2022-11-11T16:07:26;12.30;1.00
843;DHT22;407;48.884;9.126;2022-11-11T16:09:53;12.00;99.90
843;DHT22;407;48.884;9.126;2022-11-11T16:12:32;12.00;1.00
843;DHT22;407;48.884;9.126;2022-11-11T16:15:04;11.90;1.00
843;DHT22;407;48.884;9.126;2022-11-11T16:17:37;11.90;1.00
843;DHT22;407;48.884;9.126;2022-11-11T16:20:10;11.80;1.00
843;DHT22;407;48.884;9.126;2022-11-11T16:22:37;11.70;1.00
843;DHT22;407;48.884;9.126;2022-11-11T16:25:04;11.40;1.00
843;DHT22;407;48.884;9.126;2022-11-11T16:27:31;11.30;99.90
843;DHT22;407;48.884;9.126;2022-11-11T16:30:36;11.00;1.00
843;DHT22;407;48.884;9.126;2022-11-11T16:33:03;11.00;1.00
843;DHT22;407;48.884;9.126;2022-11-11T16:35:34;11.00;5.90
843;DHT22;407;48.884;9.126;2022-11-11T16:38:00;11.00;1.00
843;DHT22;407;48.884;9.126;2022-11-11T16:46:13;10.90;99.90
843;DHT22;407;48.884;9.126;2022-11-11T16:48:50;10.90;1.00
843;DHT22;407;48.884;9.126;2022-11-11T16:51:48;10.90;1.00
843;DHT22;407;48.884;9.126;2022-11-11T16:54:17;10.80;1.00
843;DHT22;407;48.884;9.126;2022-11-11T16:56:47;10.70;99.90
843;DHT22;407;48.884;9.126;2022-11-11T17:01:47;10.50;15.30
843;DHT22;407;48.884;9.126;2022-11-11T17:04:13;10.50;98.20
843;DHT22;407;48.884;9.126;2022-11-11T17:06:55;10.40;99.90
843;DHT22;407;48.884;9.126;2022-11-11T17:09:37;10.40;99.90
843;DHT22;407;48.884;9.126;2022-11-11T17:12:04;10.20;99.90
843;DHT22;407;48.884;9.126;2022-11-11T17:14:32;10.10;80.00
843;DHT22;407;48.884;9.126;2022-11-11T17:16:58;10.00;99.90
843;DHT22;407;48.884;9.126;2022-11-11T17:19:25;10.00;99.90
843;DHT22;407;48.884;9.126;2022-11-11T17:21:50;9.90;99.90
843;DHT22;407;48.884;9.126;2022-11-11T17:24:16;9.90;99.90
843;DHT22;407;48.884;9.126;2022-11-11T17:26:41;9.90;99.90
843;DHT22;407;48.884;9.126;2022-11-11T17:29:08;9.80;1.00
843;DHT22;407;48.884;9.126;2022-11-11T17:31:36;9.80;1.00
843;DHT22;407;48.884;9.126;2022-11-11T17:34:06;9.80;1.00
843;DHT22;407;48.884;9.126;2022-11-11T17:36:32;9.70;1.00
843;DHT22;407;48.884;9.126;2022-11-11T17:38:58;9.70;1.00
843;DHT22;407;48.884;9.126;2022-11-11T17:41:23;9.70;1.00
843;DHT22;407;48.884;9.126;2022-11-11T17:43:49;9.70;1.00
843;DHT22;407;48.884;9.126;2022-11-11T17:46:15;9.60;1.00
843;DHT22;407;48.884;9.126;2022-11-11T17:48:40;9.60;1.00
843;DHT22;407;48.884;9.126;2022-11-11T17:51:06;9.50;1.00
843;DHT22;407;48.884;9.126;2022-11-11T17:53:33;9.50;1.00
843;DHT22;407;48.884;9.126;2022-11-11T17:55:59;9.80;1.00
843;DHT22;407;48.884;9.126;2022-11-11T17:58:26;9.60;1.00
843;DHT22;407;48.884;9.126;2022-11-11T18:00:51;9.60;1.00
843;DHT22;407;48.884;9.126;2022-11-11T18:03:18;9.60;1.00
843;DHT22;407;48.884;9.126;2022-11-11T18:05:44;9.50;99.90
843;DHT22;407;48.884;9.126;2022-11-11T18:08:10;9.40;99.90
843;DHT22;407;48.884;9.126;2022-11-11T18:10:35;9.40;99.90
843;DHT22;407;48.884;9.126;2022-11-11T18:13:01;9.30;99.90
843;DHT22;407;48.884;9.126;2022-11-11T18:15:26;9.30;1.00
843;DHT22;407;48.884;9.126;2022-11-11T18:17:52;9.20;1.00
843;DHT22;407;48.884;9.126;2022-11-11T18:20:18;9.20;1.00
843;DHT22;407;48.884;9.126;2022-11-11T18:22:43;9.00;99.90
843;DHT22;407;48.884;9.126;2022-11-11T18:25:09;8.90;1.00
843;DHT22;407;48.884;9.126;2022-11-11T18:27:34;8.90;1.00
843;DHT22;407;48.884;9.126;2022-11-11T18:30:00;9.30;1.00
843;DHT22;407;48.884;9.126;2022-11-11T18:32:26;8.90;1.00
843;DHT22;407;48.884;9.126;2022-11-11T18:34:51;8.90;1.00
843;DHT22;407;48.884;9.126;2022-11-11T18:37:17;8.80;99.90
843;DHT22;407;48.884;9.126;2022-11-11T18:39:42;9.30;99.90
843;DHT22;407;48.884;9.126;2022-11-11T18:42:08;8.60;99.90
843;DHT22;407;48.884;9.126;2022-11-11T18:44:33;8.70;99.90
843;DHT22;407;48.884;9.126;2022-11-11T18:46:59;8.60;99.90
843;DHT22;407;48.884;9.126;2022-11-11T18:49:25;8.50;99.90
843;DHT22;407;48.884;9.126;2022-11-11T18:51:50;8.40;1.00
843;DHT22;407;48.884;9.126;2022-11-11T18:54:16;8.50;1.00
843;DHT22;407;48.884;9.126;2022-11-11T18:56:41;8.40;1.00
843;DHT22;407;48.884;9.126;2022-11-11T18:59:07;8.50;1.00
843;DHT22;407;48.884;9.126;2022-11-11T19:01:37;8.40;1.00
843;DHT22;407;48.884;9.126;2022-11-11T19:04:08;9.40;1.00
843;DHT22;407;48.884;9.126;2022-11-11T19:06:36;8.40;1.00
843;DHT22;407;48.884;9.126;2022-11-11T19:09:08;8.50;1.00
843;DHT22;407;48.884;9.126;2022-11-11T19:11:36;8.40;1.00
843;DHT22;407;48.884;9.126;2022-11-11T19:14:03;8.40;1.00
843;DHT22;407;48.884;9.126;2022-11-11T19:16:29;8.40;1.00
843;DHT22;407;48.884;9.126;2022-11-11T19:18:55;9.40;1.00
843;DHT22;407;48.884;9.126;2022-11-11T19:21:23;8.60;1.00
843;DHT22;407;48.884;9.126;2022-11-11T19:23:50;8.50;1.00
843;DHT22;407;48.884;9.126;2022-11-11T19:26:17;8.50;1.00
843;DHT22;407;48.884;9.126;2022-11-11T19:28:43;8.60;1.00
843;DHT22;407;48.884;9.126;2022-11-11T19:31:18;8.60;1.00
843;DHT22;407;48.884;9.126;2022-11-11T19:33:45;8.60;1.00